createdAt,value
2022-10-06T00:00:13.778Z,17.57
2022-10-06T00:03:00.050Z,17.55
2022-10-06T00:05:45.570Z,17.39
2022-10-06T00:08:33.530Z,17.64
2022-10-06T00:11:22.274Z,17.62
2022-10-06T00:14:08.342Z,17.56
2022-10-06T00:16:53.818Z,17.41
2022-10-06T00:19:41.092Z,16.97
2022-10-06T00:22:26.496Z,16.37
2022-10-06T00:25:15.645Z,16.26
2022-10-06T00:28:02.950Z,15.98
2022-10-06T00:30:49.074Z,16.03
2022-10-06T00:33:35.722Z,16.06
2022-10-06T00:36:21.466Z,15.96
2022-10-06T00:39:07.560Z,15.90
2022-10-06T00:41:54.236Z,15.93
2022-10-06T00:44:41.513Z,15.72
2022-10-06T00:47:31.293Z,15.74
2022-10-06T00:50:18.118Z,15.66
2022-10-06T00:53:05.050Z,15.60
2022-10-06T00:55:50.771Z,15.55
2022-10-06T00:58:37.921Z,15.62
2022-10-06T01:01:23.986Z,15.50
2022-10-06T01:04:15.750Z,15.56
2022-10-06T01:07:01.989Z,15.54
2022-10-06T01:09:48.573Z,15.47
2022-10-06T01:12:34.623Z,15.52
2022-10-06T01:15:22.106Z,15.58
2022-10-06T01:18:14.922Z,15.52
2022-10-06T01:21:21.036Z,15.46
2022-10-06T01:24:06.660Z,15.42
2022-10-06T01:26:53.508Z,15.34
2022-10-06T01:29:39.494Z,15.34
2022-10-06T01:32:31.583Z,15.30
2022-10-06T01:35:18.751Z,15.16
2022-10-06T01:38:04.660Z,15.37
2022-10-06T01:40:53.600Z,15.30
2022-10-06T01:43:40.022Z,15.34
2022-10-06T01:46:26.405Z,15.29
2022-10-06T01:49:13.304Z,15.27
2022-10-06T01:51:59.029Z,15.19
2022-10-06T01:54:44.827Z,15.20
2022-10-06T01:57:32.031Z,15.12
2022-10-06T02:00:19.412Z,15.06
2022-10-06T02:03:07.854Z,15.03
2022-10-06T02:05:56.796Z,15.09
2022-10-06T02:08:42.581Z,15.01
2022-10-06T02:11:29.591Z,15.04
2022-10-06T02:14:15.982Z,14.98
2022-10-06T02:17:02.434Z,14.90
2022-10-06T02:19:47.756Z,14.86
2022-10-06T02:22:38.605Z,14.83
2022-10-06T02:25:23.926Z,14.90
2022-10-06T02:28:11.103Z,14.74
2022-10-06T02:31:05.395Z,14.75
2022-10-06T02:33:51.584Z,14.50
2022-10-06T02:36:37.698Z,14.39
2022-10-06T02:39:23.339Z,14.32
2022-10-06T02:42:09.169Z,14.04
2022-10-06T02:44:54.978Z,14.13
2022-10-06T02:47:41.414Z,14.19
2022-10-06T02:50:26.906Z,14.08
2022-10-06T02:53:12.294Z,14.20
2022-10-06T02:56:10.993Z,14.25
2022-10-06T02:58:56.609Z,14.22
2022-10-06T03:01:42.193Z,14.41
2022-10-06T03:04:28.077Z,14.33
2022-10-06T03:07:16.123Z,14.34
2022-10-06T03:10:01.442Z,14.24
2022-10-06T03:12:48.555Z,14.12
2022-10-06T03:15:36.434Z,14.16
2022-10-06T03:18:22.441Z,13.97
2022-10-06T03:21:12.766Z,13.94
2022-10-06T03:23:59.273Z,14.08
2022-10-06T03:26:48.122Z,13.94
2022-10-06T03:29:34.121Z,13.98
2022-10-06T03:32:20.122Z,13.92
2022-10-06T03:35:06.017Z,13.86
2022-10-06T03:37:51.741Z,13.77
2022-10-06T03:40:37.742Z,13.83
2022-10-06T03:43:23.595Z,13.68
2022-10-06T03:46:12.703Z,13.72
2022-10-06T03:49:00.799Z,13.72
2022-10-06T03:51:46.369Z,13.90
2022-10-06T03:54:31.999Z,13.89
2022-10-06T03:57:17.595Z,13.94
2022-10-06T04:00:04.114Z,14.05
2022-10-06T04:02:51.281Z,14.06
2022-10-06T04:05:37.477Z,13.90
2022-10-06T04:08:24.567Z,13.79
2022-10-06T04:11:14.355Z,13.63
2022-10-06T04:14:02.723Z,13.62
2022-10-06T04:16:50.346Z,13.43
2022-10-06T04:19:36.485Z,13.44
2022-10-06T04:22:22.378Z,13.36
2022-10-06T04:25:09.002Z,13.25
2022-10-06T04:27:54.667Z,13.26
2022-10-06T04:30:40.562Z,13.22
2022-10-06T04:33:26.485Z,13.15
2022-10-06T04:36:24.022Z,13.27
2022-10-06T04:39:11.617Z,13.29
2022-10-06T04:41:57.598Z,13.17
2022-10-06T04:44:43.495Z,13.14
2022-10-06T04:47:29.076Z,13.19
2022-10-06T04:50:14.662Z,13.24
2022-10-06T04:53:00.703Z,13.24
2022-10-06T04:55:46.508Z,13.35
2022-10-06T04:58:34.251Z,13.38
2022-10-06T05:01:25.697Z,13.52
2022-10-06T05:04:11.084Z,13.40
2022-10-06T05:06:56.568Z,13.57
2022-10-06T05:09:42.441Z,13.57
2022-10-06T05:12:31.757Z,13.70
2022-10-06T05:15:17.981Z,13.79
2022-10-06T05:18:03.638Z,13.79
2022-10-06T05:21:06.846Z,13.65
2022-10-06T05:23:52.361Z,13.73
2022-10-06T05:26:38.032Z,13.76
2022-10-06T05:29:23.382Z,13.69
2022-10-06T05:32:10.200Z,13.85
2022-10-06T05:34:56.199Z,13.86
2022-10-06T05:37:49.418Z,13.94
2022-10-06T05:40:35.869Z,14.04
2022-10-06T05:43:21.532Z,13.81
2022-10-06T05:46:21.659Z,13.78
2022-10-06T05:49:10.161Z,13.68
2022-10-06T05:51:56.531Z,13.56
2022-10-06T05:54:42.115Z,13.55
2022-10-06T05:57:28.016Z,13.40
2022-10-06T06:00:14.107Z,13.45
2022-10-06T06:03:00.261Z,13.44
2022-10-06T06:05:45.817Z,13.35
2022-10-06T06:08:31.741Z,13.21
2022-10-06T06:11:20.100Z,13.35
2022-10-06T06:14:09.824Z,13.32
2022-10-06T06:16:55.768Z,13.39
2022-10-06T06:19:41.552Z,13.49
2022-10-06T06:22:26.994Z,13.51
2022-10-06T06:25:12.969Z,13.71
2022-10-06T06:27:58.588Z,13.73
2022-10-06T06:30:44.369Z,13.80
2022-10-06T06:33:32.134Z,13.99
2022-10-06T06:36:22.643Z,14.26
2022-10-06T06:39:10.613Z,14.43
2022-10-06T06:41:56.100Z,14.63
2022-10-06T06:44:42.063Z,14.83
2022-10-06T06:47:27.431Z,14.86
2022-10-06T06:50:17.204Z,15.08
2022-10-06T06:53:02.645Z,15.56
2022-10-06T06:55:52.309Z,15.61
2022-10-06T06:58:37.963Z,15.51
2022-10-06T07:01:24.043Z,15.90
2022-10-06T07:04:10.804Z,16.80
2022-10-06T07:06:59.147Z,16.71
2022-10-06T07:09:44.967Z,17.26
2022-10-06T07:12:30.789Z,16.58
2022-10-06T07:15:35.028Z,17.01
2022-10-06T07:18:38.963Z,17.52
2022-10-06T07:21:43.626Z,17.84
2022-10-06T07:24:47.574Z,18.46
2022-10-06T07:27:41.011Z,18.72
2022-10-06T07:30:29.217Z,18.83
2022-10-06T07:33:15.708Z,18.42
2022-10-06T07:36:03.161Z,18.21
2022-10-06T07:38:49.109Z,18.64
2022-10-06T07:41:35.572Z,19.41
2022-10-06T07:44:22.802Z,19.77
2022-10-06T07:47:08.734Z,20.33
2022-10-06T07:49:57.932Z,20.62
2022-10-06T07:52:43.710Z,20.04
2022-10-06T07:55:30.612Z,19.68
2022-10-06T07:58:22.392Z,19.97
2022-10-06T08:01:10.377Z,21.15
2022-10-06T08:03:57.561Z,21.09
2022-10-06T08:06:44.861Z,21.74
2022-10-06T08:09:30.903Z,21.96
2022-10-06T08:12:35.105Z,21.73
2022-10-06T08:15:21.140Z,21.07
2022-10-06T08:18:21.320Z,22.09
2022-10-06T08:21:19.339Z,23.09
2022-10-06T08:24:05.448Z,22.82
2022-10-06T08:26:53.646Z,22.60
2022-10-06T08:29:40.041Z,23.22
2022-10-06T08:35:12.309Z,22.69
2022-10-06T08:37:59.182Z,22.51
2022-10-06T08:40:47.128Z,22.29
2022-10-06T08:43:35.229Z,23.85
2022-10-06T08:46:25.017Z,24.33
2022-10-06T08:49:19.856Z,24.55
2022-10-06T08:52:22.748Z,25.00
2022-10-06T08:55:38.634Z,25.34
2022-10-06T08:58:58.549Z,25.17
2022-10-06T09:01:50.501Z,26.31
2022-10-06T09:04:38.019Z,25.39
2022-10-06T09:07:39.021Z,25.35
2022-10-06T09:11:00.123Z,23.59
2022-10-06T09:13:59.994Z,21.97
2022-10-06T09:16:53.694Z,22.56
2022-10-06T09:19:59.622Z,22.75
2022-10-06T09:22:50.228Z,24.59
2022-10-06T09:25:38.381Z,24.10
2022-10-06T09:28:25.593Z,24.94
2022-10-06T09:31:24.348Z,26.55
2022-10-06T09:34:31.212Z,26.95
2022-10-06T09:37:18.608Z,27.06
2022-10-06T09:40:49.208Z,27.42
2022-10-06T09:43:35.105Z,24.70
2022-10-06T09:46:32.031Z,27.19
2022-10-06T09:49:20.383Z,27.18
2022-10-06T09:52:15.176Z,24.10
2022-10-06T09:55:19.826Z,23.51
2022-10-06T09:58:20.518Z,27.04
2022-10-06T10:01:08.505Z,28.73
2022-10-06T10:04:20.042Z,27.61
2022-10-06T10:07:25.344Z,24.16
2022-10-06T10:10:24.248Z,20.95
2022-10-06T10:13:25.078Z,20.77
2022-10-06T10:16:17.175Z,22.53
2022-10-06T10:19:06.031Z,21.75
2022-10-06T10:21:56.420Z,25.31
2022-10-06T10:25:04.597Z,26.76
2022-10-06T10:28:14.365Z,25.24
2022-10-06T10:31:18.611Z,25.78
2022-10-06T10:34:24.462Z,28.17
2022-10-06T10:37:35.995Z,29.43
2022-10-06T10:40:32.767Z,29.06
2022-10-06T10:43:23.175Z,27.88
2022-10-06T10:46:23.112Z,28.13
2022-10-06T10:49:33.948Z,28.31
2022-10-06T10:52:23.295Z,24.12
2022-10-06T10:55:23.758Z,27.13
2022-10-06T10:58:24.007Z,26.71
2022-10-06T11:01:17.636Z,27.16
2022-10-06T11:04:10.500Z,31.22
2022-10-06T11:07:12.033Z,28.74
2022-10-06T11:10:38.977Z,28.16
2022-10-06T11:13:48.832Z,29.25
2022-10-06T11:16:51.151Z,31.48
2022-10-06T11:19:46.029Z,32.13
2022-10-06T11:22:41.636Z,31.94
2022-10-06T11:25:40.846Z,32.21
2022-10-06T11:28:54.630Z,31.03
2022-10-06T11:32:01.959Z,33.09
2022-10-06T11:34:52.581Z,31.81
2022-10-06T11:37:47.550Z,32.88
2022-10-06T11:40:59.351Z,29.05
2022-10-06T11:43:49.659Z,25.33
2022-10-06T11:46:45.083Z,23.47
2022-10-06T11:49:32.630Z,25.77
2022-10-06T11:52:19.911Z,25.09
2022-10-06T11:55:18.888Z,27.32
2022-10-06T11:58:40.697Z,27.14
2022-10-06T12:01:32.543Z,27.58
2022-10-06T12:04:24.130Z,29.88
2022-10-06T12:07:11.674Z,31.54
2022-10-06T12:10:44.353Z,31.11
2022-10-06T12:17:05.611Z,28.86
2022-10-06T12:20:12.353Z,31.55
2022-10-06T12:23:13.998Z,29.37
2022-10-06T12:26:10.438Z,25.96
2022-10-06T12:29:20.821Z,25.87
2022-10-06T12:32:28.648Z,27.78
2022-10-06T12:35:39.839Z,27.71
2022-10-06T12:38:31.917Z,30.34
2022-10-06T12:42:16.609Z,28.45
2022-10-06T12:45:16.130Z,29.81
2022-10-06T12:48:06.261Z,30.56
2022-10-06T12:51:02.866Z,31.47
2022-10-06T12:54:05.945Z,33.30
2022-10-06T12:56:59.025Z,33.00
2022-10-06T12:59:45.776Z,32.86
2022-10-06T13:02:32.558Z,32.87
2022-10-06T13:05:18.429Z,33.20
2022-10-06T13:08:07.548Z,30.46
2022-10-06T13:11:13.467Z,31.02
2022-10-06T13:14:14.400Z,30.42
2022-10-06T13:17:03.339Z,31.39
2022-10-06T13:19:49.058Z,31.28
2022-10-06T13:22:36.776Z,30.57
2022-10-06T13:25:22.281Z,32.41
2022-10-06T13:28:26.675Z,29.44
2022-10-06T13:31:15.730Z,32.49
2022-10-06T13:34:12.344Z,29.93
2022-10-06T13:37:00.768Z,30.94
2022-10-06T13:39:46.687Z,29.83
2022-10-06T13:42:33.416Z,30.29
2022-10-06T13:45:19.117Z,29.30
2022-10-06T13:48:09.277Z,29.44
2022-10-06T13:50:56.130Z,30.08
2022-10-06T13:53:48.124Z,30.67
2022-10-06T13:56:41.436Z,30.11
2022-10-06T13:59:37.105Z,28.66
2022-10-06T14:02:25.515Z,28.34
2022-10-06T14:05:30.388Z,29.06
2022-10-06T14:08:23.691Z,26.99
2022-10-06T14:11:10.709Z,27.98
2022-10-06T14:14:03.199Z,25.87
2022-10-06T14:16:52.272Z,23.65
2022-10-06T14:19:40.729Z,26.09
2022-10-06T14:22:36.041Z,27.75
2022-10-06T14:25:23.037Z,26.14
2022-10-06T14:28:10.958Z,24.86
2022-10-06T14:30:58.709Z,25.39
2022-10-06T14:33:47.570Z,26.42
2022-10-06T14:36:36.931Z,28.24
2022-10-06T14:39:22.459Z,27.39
2022-10-06T14:42:08.984Z,28.39
2022-10-06T14:44:55.450Z,28.16
2022-10-06T14:47:42.366Z,29.55
2022-10-06T14:50:30.238Z,29.74
2022-10-06T14:53:18.183Z,28.77
2022-10-06T14:56:11.064Z,29.21
2022-10-06T14:59:00.919Z,29.71
2022-10-06T15:01:49.836Z,28.86
2022-10-06T15:04:35.285Z,28.17
2022-10-06T15:07:39.478Z,27.78
2022-10-06T15:10:25.494Z,27.64
2022-10-06T15:13:11.144Z,24.21
2022-10-06T15:15:58.512Z,22.57
2022-10-06T15:18:45.505Z,21.32
2022-10-06T15:21:32.188Z,20.48
2022-10-06T15:24:19.086Z,20.09
2022-10-06T15:27:25.067Z,19.04
2022-10-06T15:30:12.092Z,19.17
2022-10-06T15:32:57.607Z,19.04
2022-10-06T15:36:01.001Z,18.76
2022-10-06T15:38:47.284Z,18.26
2022-10-06T15:41:36.719Z,18.25
2022-10-06T15:44:24.553Z,18.23
2022-10-06T15:47:11.304Z,18.13
2022-10-06T15:49:57.663Z,17.76
2022-10-06T15:52:43.024Z,17.90
2022-10-06T15:55:28.764Z,17.88
2022-10-06T15:58:16.094Z,17.34
2022-10-06T16:01:04.013Z,17.38
2022-10-06T16:03:50.763Z,16.86
2022-10-06T16:06:55.473Z,16.73
2022-10-06T16:09:46.623Z,16.94
2022-10-06T16:12:34.263Z,16.79
2022-10-06T16:15:20.536Z,16.80
2022-10-06T16:18:07.026Z,16.42
2022-10-06T16:20:54.130Z,16.35
2022-10-06T16:23:41.201Z,16.34
2022-10-06T16:26:28.023Z,16.27
2022-10-06T16:29:17.116Z,16.17
2022-10-06T16:32:02.546Z,16.08
2022-10-06T16:34:50.539Z,16.10
2022-10-06T16:37:35.895Z,16.01
2022-10-06T16:40:23.068Z,15.72
2022-10-06T16:43:08.527Z,15.38
2022-10-06T16:46:02.099Z,15.32
2022-10-06T16:48:50.023Z,15.46
2022-10-06T16:51:38.183Z,15.35
2022-10-06T16:54:23.807Z,15.32
2022-10-06T16:57:10.224Z,15.12
2022-10-06T16:59:55.594Z,14.90
2022-10-06T17:02:41.794Z,14.72
2022-10-06T17:05:28.959Z,14.57
2022-10-06T17:08:14.249Z,14.62
2022-10-06T17:11:05.601Z,14.75
2022-10-06T17:13:59.555Z,14.72
2022-10-06T17:16:47.848Z,14.45
2022-10-06T17:19:33.498Z,14.46
2022-10-06T17:22:20.340Z,14.10
2022-10-06T17:25:07.314Z,14.12
2022-10-06T17:27:52.825Z,13.84
2022-10-06T17:30:40.147Z,13.72
2022-10-06T17:33:28.455Z,13.72
2022-10-06T17:36:18.039Z,13.70
2022-10-06T17:39:06.869Z,13.60
2022-10-06T17:41:53.596Z,13.60
2022-10-06T17:44:39.990Z,13.56
2022-10-06T17:47:26.430Z,13.65
2022-10-06T17:50:13.507Z,13.59
2022-10-06T17:53:02.011Z,13.26
2022-10-06T17:55:47.909Z,13.08
2022-10-06T17:58:36.527Z,12.90
2022-10-06T18:01:27.225Z,12.81
2022-10-06T18:04:18.977Z,12.61
2022-10-06T18:07:07.144Z,12.53
2022-10-06T18:10:13.083Z,12.45
2022-10-06T18:13:00.774Z,12.40
2022-10-06T18:15:48.689Z,12.54
2022-10-06T18:18:34.161Z,12.57
2022-10-06T18:21:23.516Z,12.53
2022-10-06T18:24:24.449Z,12.48
2022-10-06T18:27:11.222Z,12.57
2022-10-06T18:30:01.127Z,12.63
2022-10-06T18:36:15.039Z,12.74
2022-10-06T18:39:01.962Z,12.63
2022-10-06T18:41:50.887Z,12.57
2022-10-06T18:44:56.538Z,12.58
2022-10-06T18:48:01.158Z,12.32
2022-10-06T18:50:59.971Z,12.02
2022-10-06T18:53:46.345Z,11.91
2022-10-06T18:56:34.455Z,11.99
2022-10-06T18:59:32.218Z,12.22
2022-10-06T19:02:19.291Z,12.23
2022-10-06T19:05:06.122Z,12.35
2022-10-06T19:07:54.413Z,12.39
2022-10-06T19:11:00.816Z,12.30
2022-10-06T19:13:53.795Z,12.22
2022-10-06T19:16:42.761Z,12.13
2022-10-06T19:19:30.604Z,12.13
2022-10-06T19:22:18.050Z,11.95
2022-10-06T19:25:03.983Z,11.96
2022-10-06T19:27:51.367Z,12.06
2022-10-06T19:30:36.750Z,11.95
2022-10-06T19:33:24.219Z,11.92
2022-10-06T19:36:09.804Z,11.66
2022-10-06T19:38:57.419Z,11.53
2022-10-06T19:42:02.278Z,11.55
2022-10-06T19:44:48.040Z,11.38
2022-10-06T19:47:33.632Z,11.38
2022-10-06T19:50:19.700Z,11.31
2022-10-06T19:53:06.565Z,11.36
2022-10-06T19:56:01.512Z,11.36
2022-10-06T19:58:50.387Z,11.38
2022-10-06T20:01:36.147Z,11.33
2022-10-06T20:04:25.287Z,11.26
2022-10-06T20:07:12.559Z,11.17
2022-10-06T20:09:58.130Z,11.17
2022-10-06T20:12:44.957Z,11.29
2022-10-06T20:15:32.319Z,11.05
2022-10-06T20:18:17.570Z,10.98
2022-10-06T20:21:03.702Z,10.99
2022-10-06T20:23:49.841Z,11.14
2022-10-06T20:26:38.918Z,10.99
2022-10-06T20:29:26.404Z,10.98
2022-10-06T20:32:12.031Z,10.79
2022-10-06T20:34:58.113Z,10.77
2022-10-06T20:37:45.516Z,10.86
2022-10-06T20:40:42.689Z,10.73
2022-10-06T20:43:30.169Z,10.95
2022-10-06T20:46:15.966Z,10.88
2022-10-06T20:49:04.224Z,10.88
2022-10-06T20:51:51.906Z,10.79
2022-10-06T20:54:37.686Z,10.78
2022-10-06T20:57:23.437Z,10.79
2022-10-06T21:00:10.427Z,10.79
2022-10-06T21:02:56.886Z,10.66
2022-10-06T21:05:49.025Z,10.62
2022-10-06T21:08:34.661Z,10.55
2022-10-06T21:11:23.716Z,10.50
2022-10-06T21:14:11.639Z,10.52
2022-10-06T21:16:57.164Z,10.46
2022-10-06T21:19:44.433Z,10.38
2022-10-06T21:22:31.540Z,10.32
2022-10-06T21:25:17.295Z,10.38
2022-10-06T21:28:04.065Z,10.34
2022-10-06T21:30:50.465Z,10.29
2022-10-06T21:33:41.056Z,10.34
2022-10-06T21:36:28.221Z,10.26
2022-10-06T21:39:14.237Z,10.18
2022-10-06T21:42:02.671Z,10.21
2022-10-06T21:44:48.426Z,10.11
2022-10-06T21:47:34.871Z,10.11
2022-10-06T21:50:20.645Z,10.15
2022-10-06T21:53:06.381Z,10.28
2022-10-06T21:55:53.719Z,10.19
2022-10-06T21:58:39.212Z,10.09
2022-10-06T22:01:31.362Z,10.04
2022-10-06T22:04:17.522Z,9.85
2022-10-06T22:07:03.487Z,9.90
2022-10-06T22:09:48.902Z,9.85
2022-10-06T22:12:35.423Z,9.92
2022-10-06T22:15:22.108Z,9.89
2022-10-06T22:18:07.659Z,10.02
2022-10-06T22:20:53.375Z,9.83
2022-10-06T22:23:41.109Z,9.83
2022-10-06T22:26:30.081Z,9.90
2022-10-06T22:29:17.630Z,10.00
2022-10-06T22:32:03.502Z,9.88
2022-10-06T22:34:49.179Z,9.87
2022-10-06T22:37:35.114Z,9.90
2022-10-06T22:40:20.841Z,9.92
2022-10-06T22:43:06.430Z,10.01
2022-10-06T22:45:52.136Z,10.03
2022-10-06T22:48:38.586Z,9.92
2022-10-06T22:51:24.990Z,9.81
2022-10-06T22:54:16.999Z,9.81
2022-10-06T22:57:02.551Z,9.63
2022-10-06T22:59:48.565Z,9.76
2022-10-06T23:02:34.425Z,9.65
2022-10-06T23:05:20.365Z,9.63
2022-10-06T23:08:07.446Z,9.63
2022-10-06T23:10:53.778Z,9.60
2022-10-06T23:13:40.538Z,9.57
2022-10-06T23:16:26.040Z,9.63
2022-10-06T23:19:12.113Z,9.48
2022-10-06T23:21:57.715Z,9.38
2022-10-06T23:24:43.442Z,9.45
2022-10-06T23:27:29.525Z,9.46
2022-10-06T23:30:15.452Z,9.38
2022-10-06T23:33:00.980Z,9.40
2022-10-06T23:35:56.321Z,9.47
2022-10-06T23:38:45.436Z,9.37
2022-10-06T23:41:31.525Z,9.45
2022-10-06T23:44:17.134Z,9.37
2022-10-06T23:47:02.956Z,9.21
2022-10-06T23:49:48.522Z,9.32
2022-10-06T23:52:34.740Z,9.36
2022-10-06T23:55:20.883Z,9.22
2022-10-06T23:58:06.564Z,9.25
